sensor_id;sensor_type;location;lat;lon;timestamp;P1;durP1;ratioP1;P2;durP2;ratioP2
4575;SDS011;2300;51.874;8.430;2024-01-27T00:00:11;27.07;;;4.63;;
4575;SDS011;2300;51.874;8.430;2024-01-27T00:02:39;25.30;;;3.97;;
4575;SDS011;2300;51.874;8.430;2024-01-27T00:05:05;19.87;;;4.00;;
4575;SDS011;2300;51.874;8.430;2024-01-27T00:07:34;27.90;;;4.60;;
4575;SDS011;2300;51.874;8.430;2024-01-27T00:10:01;27.90;;;4.30;;
4575;SDS011;2300;51.874;8.430;2024-01-27T00:12:28;27.17;;;4.37;;
4575;SDS011;2300;51.874;8.430;2024-01-27T00:14:54;24.00;;;4.13;;
4575;SDS011;2300;51.874;8.430;2024-01-27T00:17:21;19.50;;;2.87;;
4575;SDS011;2300;51.874;8.430;2024-01-27T00:19:50;22.83;;;3.63;;
4575;SDS011;2300;51.874;8.430;2024-01-27T00:22:16;28.30;;;4.90;;
4575;SDS011;2300;51.874;8.430;2024-01-27T00:24:44;27.77;;;4.20;;
4575;SDS011;2300;51.874;8.430;2024-01-27T00:27:11;26.40;;;4.90;;
4575;SDS011;2300;51.874;8.430;2024-01-27T00:29:37;31.97;;;4.40;;
4575;SDS011;2300;51.874;8.430;2024-01-27T00:32:04;28.93;;;4.23;;
4575;SDS011;2300;51.874;8.430;2024-01-27T00:34:30;29.07;;;4.07;;
4575;SDS011;2300;51.874;8.430;2024-01-27T00:36:57;27.77;;;4.30;;
4575;SDS011;2300;51.874;8.430;2024-01-27T00:39:24;22.63;;;3.77;;
4575;SDS011;2300;51.874;8.430;2024-01-27T00:41:52;25.20;;;4.10;;
4575;SDS011;2300;51.874;8.430;2024-01-27T00:44:20;32.93;;;4.23;;
4575;SDS011;2300;51.874;8.430;2024-01-27T00:46:47;25.20;;;3.90;;
4575;SDS011;2300;51.874;8.430;2024-01-27T00:49:13;26.73;;;4.50;;
4575;SDS011;2300;51.874;8.430;2024-01-27T00:51:40;26.03;;;4.57;;
4575;SDS011;2300;51.874;8.430;2024-01-27T00:54:06;32.13;;;4.53;;
4575;SDS011;2300;51.874;8.430;2024-01-27T00:56:33;25.87;;;4.70;;
4575;SDS011;2300;51.874;8.430;2024-01-27T00:59:01;28.73;;;4.23;;
4575;SDS011;2300;51.874;8.430;2024-01-27T01:01:27;30.07;;;4.10;;
4575;SDS011;2300;51.874;8.430;2024-01-27T01:03:53;30.13;;;4.63;;
4575;SDS011;2300;51.874;8.430;2024-01-27T01:06:20;24.47;;;3.97;;
4575;SDS011;2300;51.874;8.430;2024-01-27T01:08:47;28.03;;;4.77;;
4575;SDS011;2300;51.874;8.430;2024-01-27T01:11:13;20.93;;;3.93;;
4575;SDS011;2300;51.874;8.430;2024-01-27T01:13:40;20.77;;;4.83;;
4575;SDS011;2300;51.874;8.430;2024-01-27T01:16:08;28.77;;;4.70;;
4575;SDS011;2300;51.874;8.430;2024-01-27T01:18:35;31.20;;;4.20;;
4575;SDS011;2300;51.874;8.430;2024-01-27T01:21:01;22.30;;;4.00;;
4575;SDS011;2300;51.874;8.430;2024-01-27T01:23:28;21.47;;;3.80;;
4575;SDS011;2300;51.874;8.430;2024-01-27T01:25:54;20.90;;;4.30;;
4575;SDS011;2300;51.874;8.430;2024-01-27T01:28:21;23.47;;;3.83;;
4575;SDS011;2300;51.874;8.430;2024-01-27T01:30:48;25.97;;;3.60;;
4575;SDS011;2300;51.874;8.430;2024-01-27T01:33:16;27.43;;;5.17;;
4575;SDS011;2300;51.874;8.430;2024-01-27T01:35:43;19.23;;;4.43;;
4575;SDS011;2300;51.874;8.430;2024-01-27T01:38:10;21.60;;;3.60;;
4575;SDS011;2300;51.874;8.430;2024-01-27T01:40:37;18.30;;;4.27;;
4575;SDS011;2300;51.874;8.430;2024-01-27T01:43:04;28.73;;;4.07;;
4575;SDS011;2300;51.874;8.430;2024-01-27T01:45:36;25.63;;;4.77;;
4575;SDS011;2300;51.874;8.430;2024-01-27T01:48:03;25.50;;;4.73;;
4575;SDS011;2300;51.874;8.430;2024-01-27T01:50:31;20.57;;;3.83;;
4575;SDS011;2300;51.874;8.430;2024-01-27T01:52:58;16.50;;;3.93;;
4575;SDS011;2300;51.874;8.430;2024-01-27T01:55:25;22.43;;;4.90;;
4575;SDS011;2300;51.874;8.430;2024-01-27T01:57:52;24.07;;;4.33;;
4575;SDS011;2300;51.874;8.430;2024-01-27T02:00:17;18.80;;;4.37;;
4575;SDS011;2300;51.874;8.430;2024-01-27T02:02:44;27.50;;;4.87;;
4575;SDS011;2300;51.874;8.430;2024-01-27T02:05:11;28.47;;;4.83;;
4575;SDS011;2300;51.874;8.430;2024-01-27T02:07:39;29.23;;;5.23;;
4575;SDS011;2300;51.874;8.430;2024-01-27T02:10:07;23.90;;;4.10;;
4575;SDS011;2300;51.874;8.430;2024-01-27T02:12:39;20.87;;;4.40;;
4575;SDS011;2300;51.874;8.430;2024-01-27T02:15:08;22.77;;;5.33;;
4575;SDS011;2300;51.874;8.430;2024-01-27T02:17:36;26.27;;;5.23;;
4575;SDS011;2300;51.874;8.430;2024-01-27T02:20:02;30.37;;;4.63;;
4575;SDS011;2300;51.874;8.430;2024-01-27T02:22:29;29.30;;;5.33;;
4575;SDS011;2300;51.874;8.430;2024-01-27T02:24:57;27.33;;;4.50;;
4575;SDS011;2300;51.874;8.430;2024-01-27T02:27:24;26.83;;;4.40;;
4575;SDS011;2300;51.874;8.430;2024-01-27T02:29:50;22.93;;;4.90;;
4575;SDS011;2300;51.874;8.430;2024-01-27T02:32:16;18.97;;;4.80;;
4575;SDS011;2300;51.874;8.430;2024-01-27T02:34:43;29.83;;;6.70;;
4575;SDS011;2300;51.874;8.430;2024-01-27T02:37:09;23.87;;;5.73;;
4575;SDS011;2300;51.874;8.430;2024-01-27T02:39:36;26.57;;;5.93;;
4575;SDS011;2300;51.874;8.430;2024-01-27T02:42:04;26.20;;;5.10;;
4575;SDS011;2300;51.874;8.430;2024-01-27T02:44:30;15.83;;;4.03;;
4575;SDS011;2300;51.874;8.430;2024-01-27T02:46:57;32.13;;;5.90;;
4575;SDS011;2300;51.874;8.430;2024-01-27T02:49:23;22.40;;;6.10;;
4575;SDS011;2300;51.874;8.430;2024-01-27T02:51:50;26.97;;;5.07;;
4575;SDS011;2300;51.874;8.430;2024-01-27T02:54:16;30.07;;;6.00;;
4575;SDS011;2300;51.874;8.430;2024-01-27T02:56:43;21.60;;;4.90;;
4575;SDS011;2300;51.874;8.430;2024-01-27T02:59:11;26.90;;;6.03;;
4575;SDS011;2300;51.874;8.430;2024-01-27T03:01:38;19.97;;;5.37;;
4575;SDS011;2300;51.874;8.430;2024-01-27T03:04:04;23.13;;;5.40;;
4575;SDS011;2300;51.874;8.430;2024-01-27T03:06:31;26.33;;;5.63;;
4575;SDS011;2300;51.874;8.430;2024-01-27T03:08:58;24.00;;;5.17;;
4575;SDS011;2300;51.874;8.430;2024-01-27T03:11:24;20.20;;;5.40;;
4575;SDS011;2300;51.874;8.430;2024-01-27T03:13:50;28.17;;;6.03;;
4575;SDS011;2300;51.874;8.430;2024-01-27T03:16:18;30.77;;;5.73;;
4575;SDS011;2300;51.874;8.430;2024-01-27T03:18:45;25.43;;;5.80;;
4575;SDS011;2300;51.874;8.430;2024-01-27T03:21:11;24.60;;;5.80;;
4575;SDS011;2300;51.874;8.430;2024-01-27T03:23:38;27.37;;;6.10;;
4575;SDS011;2300;51.874;8.430;2024-01-27T03:26:04;25.80;;;6.13;;
4575;SDS011;2300;51.874;8.430;2024-01-27T03:28:31;29.43;;;6.60;;
4575;SDS011;2300;51.874;8.430;2024-01-27T03:30:57;19.40;;;5.90;;
4575;SDS011;2300;51.874;8.430;2024-01-27T03:33:26;25.87;;;6.50;;
4575;SDS011;2300;51.874;8.430;2024-01-27T03:35:54;22.63;;;5.77;;
4575;SDS011;2300;51.874;8.430;2024-01-27T03:38:20;24.60;;;6.53;;
4575;SDS011;2300;51.874;8.430;2024-01-27T03:40:47;27.30;;;7.40;;
4575;SDS011;2300;51.874;8.430;2024-01-27T03:43:13;22.47;;;6.70;;
4575;SDS011;2300;51.874;8.430;2024-01-27T03:45:40;19.40;;;6.90;;
4575;SDS011;2300;51.874;8.430;2024-01-27T03:48:06;20.53;;;6.00;;
4575;SDS011;2300;51.874;8.430;2024-01-27T03:50:34;25.97;;;7.60;;
4575;SDS011;2300;51.874;8.430;2024-01-27T03:53:01;22.10;;;7.13;;
4575;SDS011;2300;51.874;8.430;2024-01-27T03:55:27;29.30;;;8.43;;
4575;SDS011;2300;51.874;8.430;2024-01-27T03:57:54;27.37;;;7.00;;
4575;SDS011;2300;51.874;8.430;2024-01-27T04:00:21;32.20;;;7.40;;
4575;SDS011;2300;51.874;8.430;2024-01-27T04:02:47;21.63;;;7.30;;
4575;SDS011;2300;51.874;8.430;2024-01-27T04:05:14;26.00;;;7.17;;
4575;SDS011;2300;51.874;8.430;2024-01-27T04:07:42;22.23;;;6.97;;
4575;SDS011;2300;51.874;8.430;2024-01-27T04:10:08;28.90;;;8.10;;
4575;SDS011;2300;51.874;8.430;2024-01-27T04:12:35;27.07;;;7.63;;
4575;SDS011;2300;51.874;8.430;2024-01-27T04:15:02;35.80;;;9.50;;
4575;SDS011;2300;51.874;8.430;2024-01-27T04:17:28;25.93;;;8.70;;
4575;SDS011;2300;51.874;8.430;2024-01-27T04:19:55;30.63;;;8.30;;
4575;SDS011;2300;51.874;8.430;2024-01-27T04:22:21;29.60;;;8.00;;
4575;SDS011;2300;51.874;8.430;2024-01-27T04:24:49;29.27;;;8.57;;
4575;SDS011;2300;51.874;8.430;2024-01-27T04:27:15;34.93;;;8.50;;
4575;SDS011;2300;51.874;8.430;2024-01-27T04:29:42;28.93;;;9.60;;
4575;SDS011;2300;51.874;8.430;2024-01-27T04:32:08;29.97;;;9.33;;
4575;SDS011;2300;51.874;8.430;2024-01-27T04:34:35;27.73;;;9.00;;
4575;SDS011;2300;51.874;8.430;2024-01-27T04:37:02;35.63;;;14.00;;
4575;SDS011;2300;51.874;8.430;2024-01-27T04:39:28;28.47;;;11.40;;
4575;SDS011;2300;51.874;8.430;2024-01-27T04:41:56;27.07;;;9.40;;
4575;SDS011;2300;51.874;8.430;2024-01-27T04:44:23;29.50;;;9.27;;
4575;SDS011;2300;51.874;8.430;2024-01-27T04:46:49;31.03;;;9.97;;
4575;SDS011;2300;51.874;8.430;2024-01-27T04:49:16;24.83;;;9.57;;
4575;SDS011;2300;51.874;8.430;2024-01-27T04:51:42;27.53;;;9.80;;
4575;SDS011;2300;51.874;8.430;2024-01-27T04:54:09;28.83;;;9.77;;
4575;SDS011;2300;51.874;8.430;2024-01-27T04:56:35;25.00;;;9.10;;
4575;SDS011;2300;51.874;8.430;2024-01-27T04:59:03;25.67;;;9.13;;
4575;SDS011;2300;51.874;8.430;2024-01-27T05:01:30;30.83;;;9.13;;
4575;SDS011;2300;51.874;8.430;2024-01-27T05:03:57;23.07;;;9.00;;
4575;SDS011;2300;51.874;8.430;2024-01-27T05:06:24;29.13;;;10.53;;
4575;SDS011;2300;51.874;8.430;2024-01-27T05:08:50;27.53;;;10.40;;
4575;SDS011;2300;51.874;8.430;2024-01-27T05:11:24;26.17;;;9.10;;
4575;SDS011;2300;51.874;8.430;2024-01-27T05:13:51;24.60;;;10.40;;
4575;SDS011;2300;51.874;8.430;2024-01-27T05:16:19;23.20;;;9.80;;
4575;SDS011;2300;51.874;8.430;2024-01-27T05:18:46;23.70;;;9.40;;
4575;SDS011;2300;51.874;8.430;2024-01-27T05:21:13;28.93;;;10.63;;
4575;SDS011;2300;51.874;8.430;2024-01-27T05:23:40;25.27;;;9.97;;
4575;SDS011;2300;51.874;8.430;2024-01-27T05:26:06;29.40;;;9.93;;
4575;SDS011;2300;51.874;8.430;2024-01-27T05:28:33;26.63;;;11.60;;
4575;SDS011;2300;51.874;8.430;2024-01-27T05:30:59;33.40;;;12.83;;
4575;SDS011;2300;51.874;8.430;2024-01-27T05:33:27;30.20;;;11.27;;
4575;SDS011;2300;51.874;8.430;2024-01-27T05:35:54;27.47;;;11.87;;
4575;SDS011;2300;51.874;8.430;2024-01-27T05:38:20;28.57;;;12.30;;
4575;SDS011;2300;51.874;8.430;2024-01-27T05:40:47;33.57;;;13.47;;
4575;SDS011;2300;51.874;8.430;2024-01-27T05:43:14;38.23;;;13.03;;
4575;SDS011;2300;51.874;8.430;2024-01-27T05:45:41;27.00;;;13.60;;
4575;SDS011;2300;51.874;8.430;2024-01-27T05:48:08;46.60;;;18.77;;
4575;SDS011;2300;51.874;8.430;2024-01-27T05:50:35;34.23;;;16.73;;
4575;SDS011;2300;51.874;8.430;2024-01-27T05:53:02;33.23;;;16.03;;
4575;SDS011;2300;51.874;8.430;2024-01-27T05:55:28;33.83;;;16.67;;
4575;SDS011;2300;51.874;8.430;2024-01-27T05:57:55;35.73;;;16.43;;
4575;SDS011;2300;51.874;8.430;2024-01-27T06:00:22;43.80;;;17.87;;
4575;SDS011;2300;51.874;8.430;2024-01-27T06:02:48;41.63;;;17.83;;
4575;SDS011;2300;51.874;8.430;2024-01-27T06:05:15;44.60;;;18.83;;
4575;SDS011;2300;51.874;8.430;2024-01-27T06:07:43;35.30;;;18.73;;
4575;SDS011;2300;51.874;8.430;2024-01-27T06:10:11;44.07;;;18.57;;
4575;SDS011;2300;51.874;8.430;2024-01-27T06:12:37;37.27;;;19.27;;
4575;SDS011;2300;51.874;8.430;2024-01-27T06:15:04;37.43;;;18.57;;
4575;SDS011;2300;51.874;8.430;2024-01-27T06:17:33;42.70;;;18.00;;
4575;SDS011;2300;51.874;8.430;2024-01-27T06:20:00;37.97;;;18.73;;
4575;SDS011;2300;51.874;8.430;2024-01-27T06:22:26;34.37;;;18.10;;
4575;SDS011;2300;51.874;8.430;2024-01-27T06:24:54;45.70;;;19.73;;
4575;SDS011;2300;51.874;8.430;2024-01-27T06:27:21;44.03;;;21.20;;
4575;SDS011;2300;51.874;8.430;2024-01-27T06:29:47;48.87;;;20.87;;
4575;SDS011;2300;51.874;8.430;2024-01-27T06:32:14;50.83;;;23.50;;
4575;SDS011;2300;51.874;8.430;2024-01-27T06:34:40;43.10;;;21.90;;
4575;SDS011;2300;51.874;8.430;2024-01-27T06:37:07;48.27;;;22.00;;
4575;SDS011;2300;51.874;8.430;2024-01-27T06:39:33;46.00;;;21.90;;
4575;SDS011;2300;51.874;8.430;2024-01-27T06:42:01;46.33;;;21.60;;
4575;SDS011;2300;51.874;8.430;2024-01-27T06:44:28;40.97;;;22.40;;
4575;SDS011;2300;51.874;8.430;2024-01-27T06:46:54;50.43;;;22.80;;
4575;SDS011;2300;51.874;8.430;2024-01-27T06:49:21;46.07;;;22.23;;
4575;SDS011;2300;51.874;8.430;2024-01-27T06:51:47;48.07;;;22.93;;
4575;SDS011;2300;51.874;8.430;2024-01-27T06:54:14;52.70;;;23.70;;
4575;SDS011;2300;51.874;8.430;2024-01-27T06:56:40;55.97;;;24.73;;
4575;SDS011;2300;51.874;8.430;2024-01-27T06:59:08;46.17;;;24.13;;
4575;SDS011;2300;51.874;8.430;2024-01-27T07:01:34;56.37;;;24.07;;
4575;SDS011;2300;51.874;8.430;2024-01-27T07:04:01;49.17;;;23.37;;
4575;SDS011;2300;51.874;8.430;2024-01-27T07:06:27;51.90;;;23.87;;
4575;SDS011;2300;51.874;8.430;2024-01-27T07:08:54;48.17;;;24.20;;
4575;SDS011;2300;51.874;8.430;2024-01-27T07:11:20;51.70;;;25.07;;
4575;SDS011;2300;51.874;8.430;2024-01-27T07:13:47;48.37;;;24.37;;
4575;SDS011;2300;51.874;8.430;2024-01-27T07:16:14;49.00;;;26.40;;
4575;SDS011;2300;51.874;8.430;2024-01-27T07:18:41;46.00;;;26.73;;
4575;SDS011;2300;51.874;8.430;2024-01-27T07:21:07;50.40;;;26.97;;
4575;SDS011;2300;51.874;8.430;2024-01-27T07:23:34;52.77;;;26.57;;
4575;SDS011;2300;51.874;8.430;2024-01-27T07:26:01;54.70;;;26.57;;
4575;SDS011;2300;51.874;8.430;2024-01-27T07:28:29;60.60;;;27.23;;
4575;SDS011;2300;51.874;8.430;2024-01-27T07:30:55;50.90;;;28.13;;
4575;SDS011;2300;51.874;8.430;2024-01-27T07:33:23;53.83;;;27.07;;
4575;SDS011;2300;51.874;8.430;2024-01-27T07:35:50;58.33;;;27.10;;
4575;SDS011;2300;51.874;8.430;2024-01-27T07:38:16;52.20;;;28.07;;
4575;SDS011;2300;51.874;8.430;2024-01-27T07:40:43;60.50;;;29.33;;
4575;SDS011;2300;51.874;8.430;2024-01-27T07:43:09;56.50;;;28.67;;
4575;SDS011;2300;51.874;8.430;2024-01-27T07:45:36;60.93;;;28.90;;
4575;SDS011;2300;51.874;8.430;2024-01-27T07:48:03;59.87;;;29.20;;
4575;SDS011;2300;51.874;8.430;2024-01-27T07:50:31;55.93;;;28.20;;
4575;SDS011;2300;51.874;8.430;2024-01-27T07:52:58;53.13;;;27.90;;
4575;SDS011;2300;51.874;8.430;2024-01-27T07:55:25;58.90;;;28.07;;
4575;SDS011;2300;51.874;8.430;2024-01-27T07:57:51;52.47;;;28.63;;
4575;SDS011;2300;51.874;8.430;2024-01-27T08:00:18;54.93;;;28.37;;
4575;SDS011;2300;51.874;8.430;2024-01-27T08:02:45;61.47;;;31.63;;
4575;SDS011;2300;51.874;8.430;2024-01-27T08:05:12;70.53;;;36.37;;
4575;SDS011;2300;51.874;8.430;2024-01-27T08:07:39;64.70;;;31.47;;
4575;SDS011;2300;51.874;8.430;2024-01-27T08:10:06;67.07;;;32.50;;
4575;SDS011;2300;51.874;8.430;2024-01-27T08:12:36;56.47;;;30.63;;
4575;SDS011;2300;51.874;8.430;2024-01-27T08:15:02;53.23;;;29.77;;
4575;SDS011;2300;51.874;8.430;2024-01-27T08:17:30;69.57;;;35.57;;
4575;SDS011;2300;51.874;8.430;2024-01-27T08:19:56;63.37;;;31.83;;
4575;SDS011;2300;51.874;8.430;2024-01-27T08:22:23;61.83;;;33.87;;
4575;SDS011;2300;51.874;8.430;2024-01-27T08:24:51;67.00;;;34.50;;
4575;SDS011;2300;51.874;8.430;2024-01-27T08:27:17;74.03;;;34.60;;
4575;SDS011;2300;51.874;8.430;2024-01-27T08:29:44;64.17;;;34.47;;
4575;SDS011;2300;51.874;8.430;2024-01-27T08:32:10;84.27;;;40.97;;
4575;SDS011;2300;51.874;8.430;2024-01-27T08:34:37;88.00;;;43.33;;
4575;SDS011;2300;51.874;8.430;2024-01-27T08:37:13;83.27;;;43.80;;
4575;SDS011;2300;51.874;8.430;2024-01-27T08:39:41;73.33;;;36.80;;
4575;SDS011;2300;51.874;8.430;2024-01-27T08:42:09;66.33;;;33.70;;
4575;SDS011;2300;51.874;8.430;2024-01-27T08:44:35;65.13;;;32.33;;
4575;SDS011;2300;51.874;8.430;2024-01-27T08:47:02;63.20;;;30.67;;
4575;SDS011;2300;51.874;8.430;2024-01-27T08:49:29;68.80;;;29.60;;
4575;SDS011;2300;51.874;8.430;2024-01-27T08:51:55;65.33;;;29.70;;
4575;SDS011;2300;51.874;8.430;2024-01-27T08:54:22;63.80;;;29.33;;
4575;SDS011;2300;51.874;8.430;2024-01-27T08:56:48;69.30;;;29.47;;
4575;SDS011;2300;51.874;8.430;2024-01-27T08:59:16;61.90;;;29.13;;
4575;SDS011;2300;51.874;8.430;2024-01-27T09:01:43;64.27;;;30.50;;
4575;SDS011;2300;51.874;8.430;2024-01-27T09:04:10;71.63;;;30.20;;
4575;SDS011;2300;51.874;8.430;2024-01-27T09:06:36;58.93;;;30.00;;
4575;SDS011;2300;51.874;8.430;2024-01-27T09:09:03;64.93;;;29.50;;
4575;SDS011;2300;51.874;8.430;2024-01-27T09:11:30;72.47;;;28.07;;
4575;SDS011;2300;51.874;8.430;2024-01-27T09:13:57;62.90;;;28.53;;
4575;SDS011;2300;51.874;8.430;2024-01-27T09:16:25;51.77;;;25.30;;
4575;SDS011;2300;51.874;8.430;2024-01-27T09:18:51;53.00;;;24.30;;
4575;SDS011;2300;51.874;8.430;2024-01-27T09:21:18;45.53;;;21.93;;
4575;SDS011;2300;51.874;8.430;2024-01-27T09:23:52;47.83;;;21.47;;
4575;SDS011;2300;51.874;8.430;2024-01-27T09:26:19;40.40;;;19.93;;
4575;SDS011;2300;51.874;8.430;2024-01-27T09:28:48;44.43;;;18.57;;
4575;SDS011;2300;51.874;8.430;2024-01-27T09:31:19;42.67;;;16.73;;
4575;SDS011;2300;51.874;8.430;2024-01-27T09:33:48;38.10;;;15.40;;
4575;SDS011;2300;51.874;8.430;2024-01-27T09:36:15;38.87;;;13.57;;
4575;SDS011;2300;51.874;8.430;2024-01-27T09:38:42;28.83;;;12.90;;
4575;SDS011;2300;51.874;8.430;2024-01-27T09:41:08;36.80;;;11.77;;
4575;SDS011;2300;51.874;8.430;2024-01-27T09:43:37;31.17;;;12.10;;
4575;SDS011;2300;51.874;8.430;2024-01-27T09:46:03;25.57;;;10.43;;
4575;SDS011;2300;51.874;8.430;2024-01-27T09:48:30;28.90;;;9.93;;
4575;SDS011;2300;51.874;8.430;2024-01-27T09:51:00;30.53;;;10.50;;
4575;SDS011;2300;51.874;8.430;2024-01-27T09:53:27;29.37;;;9.87;;
4575;SDS011;2300;51.874;8.430;2024-01-27T09:55:54;27.47;;;9.33;;
4575;SDS011;2300;51.874;8.430;2024-01-27T09:58:24;25.03;;;8.93;;
4575;SDS011;2300;51.874;8.430;2024-01-27T10:00:53;21.50;;;8.27;;
4575;SDS011;2300;51.874;8.430;2024-01-27T10:03:22;25.10;;;8.07;;
4575;SDS011;2300;51.874;8.430;2024-01-27T10:05:49;28.20;;;8.40;;
4575;SDS011;2300;51.874;8.430;2024-01-27T10:08:20;28.40;;;8.90;;
4575;SDS011;2300;51.874;8.430;2024-01-27T10:10:46;28.20;;;8.23;;
4575;SDS011;2300;51.874;8.430;2024-01-27T10:13:13;24.20;;;7.50;;
4575;SDS011;2300;51.874;8.430;2024-01-27T10:15:42;20.03;;;8.10;;
4575;SDS011;2300;51.874;8.430;2024-01-27T10:18:09;21.33;;;7.20;;
4575;SDS011;2300;51.874;8.430;2024-01-27T10:20:38;24.00;;;7.70;;
4575;SDS011;2300;51.874;8.430;2024-01-27T10:23:11;28.83;;;8.07;;
4575;SDS011;2300;51.874;8.430;2024-01-27T10:25:40;26.10;;;8.10;;
4575;SDS011;2300;51.874;8.430;2024-01-27T10:28:07;23.33;;;7.30;;
4575;SDS011;2300;51.874;8.430;2024-01-27T10:30:33;22.23;;;7.67;;
4575;SDS011;2300;51.874;8.430;2024-01-27T10:33:00;22.57;;;7.20;;
4575;SDS011;2300;51.874;8.430;2024-01-27T10:35:27;19.70;;;7.20;;
4575;SDS011;2300;51.874;8.430;2024-01-27T10:37:55;23.33;;;7.00;;
4575;SDS011;2300;51.874;8.430;2024-01-27T10:40:22;19.40;;;7.30;;
4575;SDS011;2300;51.874;8.430;2024-01-27T10:42:56;22.60;;;7.17;;
4575;SDS011;2300;51.874;8.430;2024-01-27T10:45:28;21.77;;;7.17;;
4575;SDS011;2300;51.874;8.430;2024-01-27T10:48:00;20.93;;;6.10;;
4575;SDS011;2300;51.874;8.430;2024-01-27T10:50:28;20.10;;;6.57;;
4575;SDS011;2300;51.874;8.430;2024-01-27T10:52:56;19.47;;;6.40;;
4575;SDS011;2300;51.874;8.430;2024-01-27T10:55:24;26.50;;;6.97;;
4575;SDS011;2300;51.874;8.430;2024-01-27T10:57:52;20.70;;;5.93;;
4575;SDS011;2300;51.874;8.430;2024-01-27T11:00:22;30.03;;;7.70;;
4575;SDS011;2300;51.874;8.430;2024-01-27T11:02:51;22.40;;;7.07;;
4575;SDS011;2300;51.874;8.430;2024-01-27T11:05:20;21.17;;;6.70;;
4575;SDS011;2300;51.874;8.430;2024-01-27T11:07:48;20.23;;;6.07;;
4575;SDS011;2300;51.874;8.430;2024-01-27T11:10:16;17.87;;;5.83;;
4575;SDS011;2300;51.874;8.430;2024-01-27T11:12:42;21.00;;;6.30;;
4575;SDS011;2300;51.874;8.430;2024-01-27T11:15:11;19.63;;;6.13;;
4575;SDS011;2300;51.874;8.430;2024-01-27T11:17:38;21.40;;;5.73;;
4575;SDS011;2300;51.874;8.430;2024-01-27T11:20:06;20.30;;;6.67;;
4575;SDS011;2300;51.874;8.430;2024-01-27T11:22:34;21.47;;;6.13;;
4575;SDS011;2300;51.874;8.430;2024-01-27T11:25:06;16.23;;;6.03;;
4575;SDS011;2300;51.874;8.430;2024-01-27T11:27:34;24.07;;;5.97;;
4575;SDS011;2300;51.874;8.430;2024-01-27T11:30:00;21.30;;;5.67;;
4575;SDS011;2300;51.874;8.430;2024-01-27T11:32:28;20.90;;;5.90;;
4575;SDS011;2300;51.874;8.430;2024-01-27T11:34:56;25.63;;;6.53;;
4575;SDS011;2300;51.874;8.430;2024-01-27T11:37:23;16.53;;;6.20;;
4575;SDS011;2300;51.874;8.430;2024-01-27T11:39:50;16.77;;;5.63;;
4575;SDS011;2300;51.874;8.430;2024-01-27T11:42:17;22.90;;;6.73;;
4575;SDS011;2300;51.874;8.430;2024-01-27T11:44:44;20.17;;;6.50;;
4575;SDS011;2300;51.874;8.430;2024-01-27T11:47:14;19.50;;;6.00;;
4575;SDS011;2300;51.874;8.430;2024-01-27T11:49:43;20.33;;;5.57;;
4575;SDS011;2300;51.874;8.430;2024-01-27T11:52:17;21.90;;;6.00;;
4575;SDS011;2300;51.874;8.430;2024-01-27T11:54:44;29.63;;;5.97;;
4575;SDS011;2300;51.874;8.430;2024-01-27T11:57:10;18.00;;;5.27;;
4575;SDS011;2300;51.874;8.430;2024-01-27T11:59:37;22.27;;;5.67;;
4575;SDS011;2300;51.874;8.430;2024-01-27T12:02:03;15.47;;;4.17;;
4575;SDS011;2300;51.874;8.430;2024-01-27T12:04:30;15.53;;;4.20;;
4575;SDS011;2300;51.874;8.430;2024-01-27T12:06:58;17.13;;;4.90;;
4575;SDS011;2300;51.874;8.430;2024-01-27T12:09:25;18.07;;;4.70;;
4575;SDS011;2300;51.874;8.430;2024-01-27T12:11:52;16.97;;;4.80;;
4575;SDS011;2300;51.874;8.430;2024-01-27T12:14:18;23.57;;;4.97;;
4575;SDS011;2300;51.874;8.430;2024-01-27T12:16:45;16.10;;;4.30;;
4575;SDS011;2300;51.874;8.430;2024-01-27T12:19:13;22.00;;;4.20;;
4575;SDS011;2300;51.874;8.430;2024-01-27T12:21:46;15.50;;;3.77;;
4575;SDS011;2300;51.874;8.430;2024-01-27T12:24:16;15.07;;;4.33;;
4575;SDS011;2300;51.874;8.430;2024-01-27T12:26:43;15.83;;;3.63;;
4575;SDS011;2300;51.874;8.430;2024-01-27T12:29:11;18.70;;;3.63;;
4575;SDS011;2300;51.874;8.430;2024-01-27T12:31:37;15.47;;;4.00;;
4575;SDS011;2300;51.874;8.430;2024-01-27T12:34:04;12.10;;;3.20;;
4575;SDS011;2300;51.874;8.430;2024-01-27T12:36:31;14.67;;;3.50;;
4575;SDS011;2300;51.874;8.430;2024-01-27T12:38:58;16.33;;;3.83;;
4575;SDS011;2300;51.874;8.430;2024-01-27T12:41:26;13.93;;;3.30;;
4575;SDS011;2300;51.874;8.430;2024-01-27T12:43:54;15.70;;;3.83;;
4575;SDS011;2300;51.874;8.430;2024-01-27T12:46:21;17.73;;;5.13;;
4575;SDS011;2300;51.874;8.430;2024-01-27T12:48:48;14.50;;;4.10;;
4575;SDS011;2300;51.874;8.430;2024-01-27T12:51:14;17.57;;;3.73;;
4575;SDS011;2300;51.874;8.430;2024-01-27T12:53:41;15.90;;;3.80;;
4575;SDS011;2300;51.874;8.430;2024-01-27T12:56:09;18.00;;;3.93;;
4575;SDS011;2300;51.874;8.430;2024-01-27T12:58:37;17.03;;;4.30;;
4575;SDS011;2300;51.874;8.430;2024-01-27T13:01:04;19.17;;;4.23;;
4575;SDS011;2300;51.874;8.430;2024-01-27T13:03:31;19.33;;;4.17;;
4575;SDS011;2300;51.874;8.430;2024-01-27T13:05:58;15.60;;;3.67;;
4575;SDS011;2300;51.874;8.430;2024-01-27T13:08:25;24.00;;;4.40;;
4575;SDS011;2300;51.874;8.430;2024-01-27T13:10:51;19.23;;;3.70;;
4575;SDS011;2300;51.874;8.430;2024-01-27T13:13:18;15.07;;;3.63;;
4575;SDS011;2300;51.874;8.430;2024-01-27T13:15:46;20.17;;;4.63;;
4575;SDS011;2300;51.874;8.430;2024-01-27T13:18:13;18.63;;;3.90;;
4575;SDS011;2300;51.874;8.430;2024-01-27T13:20:39;13.30;;;4.20;;
4575;SDS011;2300;51.874;8.430;2024-01-27T13:23:06;20.53;;;4.70;;
4575;SDS011;2300;51.874;8.430;2024-01-27T13:25:33;13.63;;;3.47;;
4575;SDS011;2300;51.874;8.430;2024-01-27T13:27:59;16.27;;;4.30;;
4575;SDS011;2300;51.874;8.430;2024-01-27T13:30:26;22.47;;;4.37;;
4575;SDS011;2300;51.874;8.430;2024-01-27T13:32:55;15.73;;;4.80;;
4575;SDS011;2300;51.874;8.430;2024-01-27T13:35:21;18.63;;;4.20;;
4575;SDS011;2300;51.874;8.430;2024-01-27T13:37:48;16.50;;;4.50;;
4575;SDS011;2300;51.874;8.430;2024-01-27T13:40:15;17.53;;;4.30;;
4575;SDS011;2300;51.874;8.430;2024-01-27T13:42:42;19.10;;;4.37;;
4575;SDS011;2300;51.874;8.430;2024-01-27T13:45:09;16.27;;;3.70;;
4575;SDS011;2300;51.874;8.430;2024-01-27T13:47:36;15.73;;;3.50;;
4575;SDS011;2300;51.874;8.430;2024-01-27T13:50:05;14.20;;;3.53;;
4575;SDS011;2300;51.874;8.430;2024-01-27T13:52:32;10.87;;;3.03;;
4575;SDS011;2300;51.874;8.430;2024-01-27T13:54:59;14.63;;;4.07;;
4575;SDS011;2300;51.874;8.430;2024-01-27T13:57:25;17.83;;;3.83;;
4575;SDS011;2300;51.874;8.430;2024-01-27T13:59:52;18.73;;;3.50;;
4575;SDS011;2300;51.874;8.430;2024-01-27T14:02:19;15.00;;;3.40;;
4575;SDS011;2300;51.874;8.430;2024-01-27T14:04:46;22.10;;;3.60;;
4575;SDS011;2300;51.874;8.430;2024-01-27T14:07:14;15.57;;;3.43;;
4575;SDS011;2300;51.874;8.430;2024-01-27T14:09:40;13.50;;;2.80;;
4575;SDS011;2300;51.874;8.430;2024-01-27T14:12:07;18.00;;;3.33;;
4575;SDS011;2300;51.874;8.430;2024-01-27T14:14:34;11.10;;;2.27;;
4575;SDS011;2300;51.874;8.430;2024-01-27T14:17:03;13.93;;;2.90;;
4575;SDS011;2300;51.874;8.430;2024-01-27T14:19:30;16.23;;;2.70;;
4575;SDS011;2300;51.874;8.430;2024-01-27T14:21:56;13.53;;;2.83;;
4575;SDS011;2300;51.874;8.430;2024-01-27T14:24:24;14.97;;;3.03;;
4575;SDS011;2300;51.874;8.430;2024-01-27T14:26:51;14.40;;;2.77;;
4575;SDS011;2300;51.874;8.430;2024-01-27T14:29:18;15.47;;;3.17;;
4575;SDS011;2300;51.874;8.430;2024-01-27T14:31:44;15.40;;;2.90;;
4575;SDS011;2300;51.874;8.430;2024-01-27T14:34:11;16.57;;;3.27;;
4575;SDS011;2300;51.874;8.430;2024-01-27T14:36:38;12.63;;;2.40;;
4575;SDS011;2300;51.874;8.430;2024-01-27T14:39:05;12.23;;;2.60;;
4575;SDS011;2300;51.874;8.430;2024-01-27T14:41:37;13.83;;;2.50;;
4575;SDS011;2300;51.874;8.430;2024-01-27T14:44:03;19.27;;;2.50;;
4575;SDS011;2300;51.874;8.430;2024-01-27T14:46:30;13.27;;;3.17;;
4575;SDS011;2300;51.874;8.430;2024-01-27T14:48:57;16.50;;;2.60;;
4575;SDS011;2300;51.874;8.430;2024-01-27T14:51:23;11.63;;;2.40;;
4575;SDS011;2300;51.874;8.430;2024-01-27T14:53:50;15.10;;;3.00;;
4575;SDS011;2300;51.874;8.430;2024-01-27T14:56:17;13.37;;;3.47;;